Terminal Aerodrome Forecast
Issued by NWS Sterling, VA

Current Version | Previous Version | Graphics & Text | Print | Product List | Glossary On
Versions: 1 2 3 4 5 6 7 8 9 10 11 12 13 14 15 16 17 18 19 20 21 22 23 24
000
FTUS41 KLWX 281400 AAA
TAFDCA
TAF AMD
KDCA 281456Z 2815/2912 30016G26KT P6SM SCT050 BKN090
     FM290000 31013KT P6SM BKN090
     FM290600 31009KT P6SM BKN090
     FM290800 30007KT P6SM SCT090=

USA.gov is the U.S. government's official web portal to all federal, state and local government web resources and services.